الصفحة الرئيسية
METAR-TAF:

METAR-TAF

مطار :

ميندوزا, الأرجنتين

دائرة عرض: 32-50S, خط طول: 068-47W, ارتفاع: 705 متر

مراقبة الطقس الحالي

تاريخ ووقت الإصدار 1ساعة و 17 دقيقة قبل الساعة 10:00UTC
ريح 5 عقدة من الجنوب
درجة الحرارة 13°درجة مئوية
الرطوبة 62%
ضغط 1007 hPa
الرؤية 10 كم أو أكثر
غيوم متفرقة على ارتفاع 3000 قدم
غيوم متفرقة على ارتفاع 10000 قدم

METAR: SAME 141000Z 18005KT 9999 SCT030 SCT100 13/06 Q1007

زمن: 08:17 (11:17 UTC)

توقعات

تاريخ ووقت الإصدار 6ساعات و 17 دقيقة قبل الساعة 05:00UTC
التوقعات صالحة من14 الساعة 06 UTC إلى 15 الساعة 06 UTC
ريح 10 عقدة من الجنوب/الجنوب الغربي
الرؤية 10 كم أو أكثر
غيوم متفرقة على ارتفاع 4000 قدم
غيوم مفككة على ارتفاع 10000 قدم
أصبح
من 14 الساعة 20 UTC إلى 14 الساعة 22 UTC
الرؤية 10 كم أو أكثر
الغيوم لا تقل 1500 م ولا وجود لمزنة ركامية السحاب الأسود

TAF: SAME 140500Z 1406/1506 20010KT 9999 SCT040 BKN100 TX19/1420Z TN08/1410Z BECMG 1420/1422 CAVOK

أرصاد الطقس والتوقعات من أكثر من 4000 مطار (تقارير الطقس للمطار METAR والتنبؤ بالطقس بالمطارTAF).

المحطات المتاحة هي النقط الصفراء والحمراء على الخريطة.

حرك المؤشر فوق النقطة لمعرفة اسم المحطة.

ثم انقر لمعرفة أرصاد وتوقعات الطقس.

لتغيير الخارطة: اضغط على الأزرار الخضراء مع رمز الصليب الأسود للتكبير. على الزر الأخضر مع شرطة للتصغير، أو على الأسهم الخضراء للخرائط المجاورة.


METAR-TAF: